createdAt,value
2018-09-15T00:01:52.598Z,100.00
2018-09-15T00:04:21.567Z,100.00
2018-09-15T00:06:50.522Z,100.00
2018-09-15T00:09:19.487Z,100.00
2018-09-15T00:11:48.437Z,100.00
2018-09-15T00:14:17.394Z,100.00
2018-09-15T00:16:46.315Z,100.00
2018-09-15T00:19:22.013Z,100.00
2018-09-15T00:21:51.030Z,100.00
2018-09-15T00:24:19.969Z,100.00
2018-09-15T00:26:48.926Z,100.00
2018-09-15T00:29:17.921Z,100.00
2018-09-15T00:31:46.872Z,100.00
2018-09-15T00:36:51.000Z,100.00
2018-09-15T00:39:19.956Z,100.00
2018-09-15T00:41:48.962Z,100.00
2018-09-15T00:44:17.890Z,100.00
2018-09-15T00:46:46.818Z,100.00
2018-09-15T00:49:15.792Z,100.00
2018-09-15T00:51:44.736Z,100.00
2018-09-15T00:54:13.697Z,100.00
2018-09-15T00:56:42.729Z,100.00
2018-09-15T00:59:11.694Z,100.00
2018-09-15T01:01:40.663Z,100.00
2018-09-15T01:04:09.607Z,100.00
2018-09-15T01:06:38.553Z,100.00
2018-09-15T01:09:08.688Z,100.00
2018-09-15T01:11:37.784Z,100.00
2018-09-15T01:14:06.913Z,100.00
2018-09-15T01:16:35.805Z,100.00
2018-09-15T01:19:04.710Z,100.00
2018-09-15T01:21:33.978Z,100.00
2018-09-15T01:24:02.911Z,100.00
2018-09-15T01:26:31.915Z,100.00
2018-09-15T01:29:00.852Z,100.00
2018-09-15T01:31:29.841Z,100.00
2018-09-15T01:33:58.823Z,100.00
2018-09-15T01:36:27.763Z,100.00
2018-09-15T01:38:56.707Z,100.00
2018-09-15T01:41:32.438Z,100.00
2018-09-15T01:44:01.410Z,100.00
2018-09-15T01:46:30.354Z,100.00
2018-09-15T01:48:59.354Z,100.00
2018-09-15T01:51:28.336Z,100.00
2018-09-15T01:53:57.350Z,100.00
2018-09-15T01:56:26.452Z,100.00
2018-09-15T01:58:55.416Z,100.00
2018-09-15T02:01:24.447Z,100.00
2018-09-15T02:03:53.414Z,100.00
2018-09-15T02:06:22.445Z,100.00
2018-09-15T02:08:51.418Z,100.00
2018-09-15T02:11:20.405Z,100.00
2018-09-15T02:13:49.497Z,100.00
2018-09-15T02:16:18.474Z,100.00
2018-09-15T02:18:47.393Z,100.00
2018-09-15T02:21:16.319Z,100.00
2018-09-15T02:23:45.348Z,100.00
2018-09-15T02:26:14.306Z,100.00
2018-09-15T02:28:43.456Z,100.00
2018-09-15T02:31:12.458Z,100.00
2018-09-15T02:33:41.382Z,100.00
2018-09-15T02:36:10.390Z,100.00
2018-09-15T02:38:39.318Z,100.00
2018-09-15T02:41:08.272Z,100.00
2018-09-15T02:43:37.182Z,100.00
2018-09-15T02:46:06.227Z,100.00
2018-09-15T02:48:35.180Z,100.00
2018-09-15T02:51:04.111Z,100.00
2018-09-15T02:53:33.118Z,100.00
2018-09-15T02:56:02.065Z,100.00
2018-09-15T02:58:30.981Z,100.00
2018-09-15T03:01:00.047Z,100.00
2018-09-15T03:03:29.089Z,100.00
2018-09-15T03:05:58.038Z,100.00
2018-09-15T03:08:27.053Z,100.00
2018-09-15T03:10:56.148Z,100.00
2018-09-15T03:13:25.147Z,100.00
2018-09-15T03:15:54.077Z,100.00
2018-09-15T03:18:23.051Z,100.00
2018-09-15T03:20:52.304Z,100.00
2018-09-15T03:23:21.365Z,100.00
2018-09-15T03:25:50.610Z,100.00
2018-09-15T03:28:19.638Z,100.00
2018-09-15T03:30:48.726Z,100.00
2018-09-15T03:33:17.669Z,100.00
2018-09-15T03:35:46.715Z,100.00
2018-09-15T03:38:15.662Z,100.00
2018-09-15T03:40:44.585Z,100.00
2018-09-15T03:43:13.574Z,100.00
2018-09-15T03:45:42.520Z,100.00
2018-09-15T03:48:11.449Z,100.00
2018-09-15T03:50:40.462Z,100.00
2018-09-15T03:53:09.414Z,100.00
2018-09-15T03:55:38.347Z,100.00
2018-09-15T03:58:07.362Z,100.00
2018-09-15T04:00:36.345Z,100.00
2018-09-15T04:03:05.285Z,100.00
2018-09-15T04:05:34.250Z,100.00
2018-09-15T04:08:03.372Z,100.00
2018-09-15T04:10:32.367Z,100.00
2018-09-15T04:13:01.301Z,100.00
2018-09-15T04:15:30.318Z,100.00
2018-09-15T04:17:59.422Z,100.00
2018-09-15T04:20:28.388Z,100.00
2018-09-15T04:22:57.315Z,100.00
2018-09-15T04:25:26.292Z,100.00
2018-09-15T04:27:55.242Z,100.00
2018-09-15T04:30:24.189Z,100.00
2018-09-15T04:32:53.159Z,100.00
2018-09-15T04:35:22.254Z,100.00
2018-09-15T04:37:51.212Z,100.00
2018-09-15T04:40:20.178Z,100.00
2018-09-15T04:42:49.165Z,100.00
2018-09-15T04:45:18.095Z,100.00
2018-09-15T04:47:47.064Z,100.00
2018-09-15T04:50:16.038Z,100.00
2018-09-15T04:52:45.107Z,100.00
2018-09-15T04:55:14.038Z,100.00
2018-09-15T04:57:42.996Z,100.00
2018-09-15T05:00:11.983Z,100.00
2018-09-15T05:02:40.929Z,100.00
2018-09-15T05:08:16.304Z,100.00
2018-09-15T05:10:45.401Z,100.00
2018-09-15T05:13:17.855Z,100.00
2018-09-15T05:15:47.479Z,100.00
2018-09-15T05:18:16.927Z,100.00
2018-09-15T05:20:46.359Z,100.00
2018-09-15T05:23:18.802Z,100.00
2018-09-15T05:25:49.209Z,100.00
2018-09-15T05:28:18.690Z,100.00
2018-09-15T05:30:47.647Z,100.00
2018-09-15T05:33:16.583Z,100.00
2018-09-15T05:35:45.660Z,100.00
2018-09-15T05:38:14.824Z,100.00
2018-09-15T05:40:43.768Z,100.00
2018-09-15T05:43:12.720Z,100.00
2018-09-15T05:45:41.795Z,100.00
2018-09-15T05:48:10.746Z,99.55
2018-09-15T05:50:39.719Z,98.76
2018-09-15T05:53:08.687Z,98.70
2018-09-15T05:55:37.696Z,98.33
2018-09-15T05:58:06.773Z,97.50
2018-09-15T06:00:35.770Z,97.34
2018-09-15T06:03:04.679Z,96.94
2018-09-15T06:05:33.648Z,96.64
2018-09-15T06:08:02.601Z,95.25
2018-09-15T06:10:31.566Z,95.03
2018-09-15T06:13:00.635Z,95.22
2018-09-15T06:15:29.625Z,96.39
2018-09-15T06:17:58.580Z,95.41
2018-09-15T06:20:27.582Z,96.73
2018-09-15T06:22:56.961Z,95.06
2018-09-15T06:25:26.252Z,95.26
2018-09-15T06:27:55.220Z,93.64
2018-09-15T06:30:24.168Z,93.23
2018-09-15T06:32:53.113Z,94.47
2018-09-15T06:35:22.044Z,93.37
2018-09-15T06:37:51.091Z,91.60
2018-09-15T06:40:20.037Z,92.31
2018-09-15T06:42:48.998Z,90.31
2018-09-15T06:45:18.107Z,88.80
2018-09-15T06:47:47.113Z,88.14
2018-09-15T06:50:16.033Z,87.22
2018-09-15T06:52:45.029Z,87.91
2018-09-15T06:55:14.004Z,86.66
2018-09-15T06:57:43.046Z,86.75
2018-09-15T07:00:11.968Z,87.01
2018-09-15T07:02:40.922Z,87.08
2018-09-15T07:05:10.360Z,85.37
2018-09-15T07:07:39.324Z,85.99
2018-09-15T07:10:08.349Z,83.27
2018-09-15T07:12:37.299Z,81.13
2018-09-15T07:15:06.289Z,82.92
2018-09-15T07:17:35.485Z,77.95
2018-09-15T07:20:40.925Z,76.36
2018-09-15T07:23:52.645Z,74.53
2018-09-15T07:27:03.606Z,69.74
2018-09-15T07:32:14.083Z,69.79
2018-09-15T07:34:47.258Z,65.37
2018-09-15T07:37:16.181Z,61.39
2018-09-15T07:39:45.277Z,62.58
2018-09-15T07:42:14.240Z,62.06
2018-09-15T07:44:43.232Z,59.16
2018-09-15T07:47:12.122Z,57.89
2018-09-15T07:49:41.168Z,56.16
2018-09-15T07:52:10.105Z,58.05
2018-09-15T07:54:39.179Z,58.69
2018-09-15T07:57:08.138Z,58.95
2018-09-15T07:59:37.133Z,56.24
2018-09-15T08:02:11.568Z,52.73
2018-09-15T08:04:40.560Z,52.07
2018-09-15T08:07:09.525Z,52.59
2018-09-15T08:09:38.495Z,50.70
2018-09-15T08:12:07.485Z,49.76
2018-09-15T08:14:36.537Z,50.17
2018-09-15T08:17:05.513Z,50.35
2018-09-15T08:19:34.476Z,53.73
2018-09-15T08:22:03.426Z,52.27
2018-09-15T08:24:32.899Z,47.96
2018-09-15T08:27:01.887Z,47.72
2018-09-15T08:29:30.934Z,48.06
2018-09-15T08:31:59.935Z,47.61
2018-09-15T08:34:29.041Z,50.83
2018-09-15T08:36:58.067Z,46.40
2018-09-15T08:39:27.247Z,45.29
2018-09-15T08:41:56.445Z,43.88
2018-09-15T08:44:25.486Z,45.74
2018-09-15T08:46:54.445Z,42.04
2018-09-15T08:49:23.453Z,44.27
2018-09-15T08:51:52.491Z,40.63
2018-09-15T08:54:21.937Z,39.67
2018-09-15T08:56:50.896Z,38.99
2018-09-15T08:59:19.964Z,37.86
2018-09-15T09:01:48.895Z,37.23
2018-09-15T09:04:17.895Z,40.94
2018-09-15T09:06:47.079Z,35.26
2018-09-15T09:09:16.035Z,36.56
2018-09-15T09:11:45.022Z,37.01
2018-09-15T09:14:13.985Z,36.01
2018-09-15T09:16:42.970Z,37.10
2018-09-15T09:19:12.009Z,35.88
2018-09-15T09:21:41.206Z,36.11
2018-09-15T09:24:10.193Z,35.26
2018-09-15T09:26:39.244Z,36.28
2018-09-15T09:29:08.155Z,37.10
2018-09-15T09:31:37.114Z,41.53
2018-09-15T09:34:06.081Z,40.50
2018-09-15T09:36:35.289Z,39.35
2018-09-15T09:39:06.681Z,41.54
2018-09-15T09:41:35.714Z,41.09
2018-09-15T09:44:04.728Z,40.10
2018-09-15T09:46:34.133Z,39.75
2018-09-15T09:49:03.373Z,37.44
2018-09-15T09:51:33.574Z,38.47
2018-09-15T09:54:03.103Z,39.13
2018-09-15T09:56:32.075Z,38.99
2018-09-15T09:59:01.089Z,39.87
2018-09-15T10:01:34.415Z,40.28
2018-09-15T10:04:03.467Z,39.59
2018-09-15T10:06:32.441Z,42.06
2018-09-15T10:09:01.379Z,41.52
2018-09-15T10:11:30.370Z,43.97
2018-09-15T10:13:59.390Z,45.38
2018-09-15T10:16:28.366Z,45.14
2018-09-15T10:18:57.373Z,44.29
2018-09-15T10:21:26.401Z,42.05
2018-09-15T10:23:56.279Z,41.44
2018-09-15T10:26:25.248Z,40.26
2018-09-15T10:28:54.523Z,38.87
2018-09-15T10:31:23.498Z,39.39
2018-09-15T10:33:52.452Z,40.91
2018-09-15T10:36:21.437Z,40.57
2018-09-15T10:38:50.389Z,39.59
2018-09-15T10:41:19.440Z,39.35
2018-09-15T10:43:48.440Z,39.42
2018-09-15T10:46:17.526Z,36.65
2018-09-15T10:48:46.475Z,37.70
2018-09-15T10:51:15.525Z,36.02
2018-09-15T10:53:48.655Z,37.09
2018-09-15T10:56:17.668Z,38.66
2018-09-15T10:58:46.617Z,40.92
2018-09-15T11:01:15.700Z,41.58
2018-09-15T11:03:44.730Z,44.02
2018-09-15T11:06:13.694Z,46.20
2018-09-15T11:08:43.005Z,47.17
2018-09-15T11:11:12.069Z,45.41
2018-09-15T11:13:41.121Z,42.26
2018-09-15T11:16:10.005Z,40.29
2018-09-15T11:18:39.189Z,37.45
2018-09-15T11:21:08.196Z,37.42
2018-09-15T11:23:37.212Z,33.20
2018-09-15T11:26:06.185Z,32.00
2018-09-15T11:28:35.327Z,35.15
2018-09-15T11:31:04.205Z,33.51
2018-09-15T11:33:33.159Z,32.82
2018-09-15T11:36:02.166Z,32.28
2018-09-15T11:38:31.145Z,30.63
2018-09-15T11:41:00.112Z,29.84
2018-09-15T11:43:29.231Z,32.79
2018-09-15T11:45:58.168Z,36.32
2018-09-15T11:48:27.206Z,34.41
2018-09-15T11:50:56.379Z,35.17
2018-09-15T11:53:25.370Z,35.08
2018-09-15T11:55:54.534Z,32.21
2018-09-15T11:58:24.001Z,31.69
2018-09-15T12:00:55.242Z,31.24
2018-09-15T12:03:24.261Z,28.42
2018-09-15T12:05:53.250Z,27.88
2018-09-15T12:08:22.214Z,27.78
2018-09-15T12:10:51.102Z,29.61
2018-09-15T12:13:20.104Z,31.28
2018-09-15T12:15:49.636Z,30.87
2018-09-15T12:18:18.801Z,32.29
2018-09-15T12:20:47.828Z,31.97
2018-09-15T12:23:16.782Z,30.02
2018-09-15T12:25:45.713Z,29.75
2018-09-15T12:28:14.717Z,31.72
2018-09-15T12:30:43.676Z,32.98
2018-09-15T12:33:12.589Z,32.36
2018-09-15T12:35:41.782Z,34.30
2018-09-15T12:38:10.810Z,35.19
2018-09-15T12:40:39.741Z,36.04
2018-09-15T12:43:08.725Z,36.72
2018-09-15T12:45:37.692Z,36.96
2018-09-15T12:48:06.687Z,37.83
2018-09-15T12:50:35.626Z,38.55
2018-09-15T12:53:04.653Z,38.88
2018-09-15T12:55:33.701Z,39.68
2018-09-15T12:58:02.690Z,40.38
2018-09-15T13:00:31.697Z,39.11
2018-09-15T13:03:00.648Z,40.11
2018-09-15T13:05:29.697Z,37.35
2018-09-15T13:07:58.553Z,38.18
2018-09-15T13:10:27.523Z,39.95
2018-09-15T13:12:56.527Z,38.62
2018-09-15T13:15:25.576Z,40.00
2018-09-15T13:17:54.577Z,40.56
2018-09-15T13:20:23.523Z,40.92
2018-09-15T13:22:52.494Z,39.72
2018-09-15T13:25:21.533Z,38.92
2018-09-15T13:27:50.568Z,37.85
2018-09-15T13:30:23.355Z,36.32
2018-09-15T13:32:52.479Z,33.69
2018-09-15T13:35:21.453Z,31.79
2018-09-15T13:37:50.610Z,32.33
2018-09-15T13:40:19.500Z,33.01
2018-09-15T13:42:48.583Z,33.83
2018-09-15T13:45:17.656Z,33.94
2018-09-15T13:47:46.678Z,36.04
2018-09-15T13:50:15.668Z,37.39
2018-09-15T13:52:44.610Z,36.32
2018-09-15T13:55:13.576Z,35.68
2018-09-15T13:57:42.541Z,35.12
2018-09-15T14:00:11.605Z,35.99
2018-09-15T14:02:43.221Z,37.48
2018-09-15T14:05:13.654Z,38.28
2018-09-15T14:07:43.170Z,37.63
2018-09-15T14:10:19.006Z,38.01
2018-09-15T14:12:41.625Z,38.22
2018-09-15T14:15:11.322Z,37.24
2018-09-15T14:17:40.284Z,37.47
2018-09-15T14:20:09.308Z,36.17
2018-09-15T14:22:38.500Z,35.09
2018-09-15T14:25:07.484Z,33.84
2018-09-15T14:27:36.502Z,32.27
2018-09-15T14:30:05.865Z,33.29
2018-09-15T14:32:34.835Z,31.80
2018-09-15T14:35:03.764Z,32.46
2018-09-15T14:37:32.761Z,32.56
2018-09-15T14:40:01.729Z,31.58
2018-09-15T14:42:30.834Z,32.93
2018-09-15T14:44:59.925Z,32.02
2018-09-15T14:47:29.722Z,32.96
2018-09-15T14:49:58.811Z,33.94
2018-09-15T14:52:27.826Z,34.13
2018-09-15T14:54:56.812Z,33.88
2018-09-15T14:57:25.762Z,32.82
2018-09-15T14:59:54.821Z,32.39
2018-09-15T15:02:23.793Z,32.85
2018-09-15T15:04:52.777Z,33.74
2018-09-15T15:07:21.736Z,34.44
2018-09-15T15:09:50.672Z,34.82
2018-09-15T15:12:19.634Z,34.21
2018-09-15T15:14:48.592Z,33.42
2018-09-15T15:17:17.543Z,34.13
2018-09-15T15:19:46.569Z,34.86
2018-09-15T15:22:15.530Z,34.46
2018-09-15T15:24:44.554Z,34.11
2018-09-15T15:27:13.523Z,34.52
2018-09-15T15:29:42.476Z,33.51
2018-09-15T15:32:11.469Z,32.88
2018-09-15T15:34:40.450Z,33.49
2018-09-15T15:37:09.441Z,34.05
2018-09-15T15:39:38.392Z,34.95
2018-09-15T15:42:07.405Z,34.81
2018-09-15T15:44:36.355Z,36.20
2018-09-15T15:47:05.641Z,36.66
2018-09-15T15:49:34.619Z,37.49
2018-09-15T15:52:03.785Z,36.82
2018-09-15T15:54:32.772Z,36.48
2018-09-15T15:57:01.839Z,37.10
2018-09-15T15:59:30.823Z,38.50
2018-09-15T16:01:59.793Z,36.07
2018-09-15T16:04:28.832Z,36.92
2018-09-15T16:06:57.729Z,38.00
2018-09-15T16:09:26.693Z,37.71
2018-09-15T16:11:55.777Z,37.98
2018-09-15T16:14:24.766Z,39.41
2018-09-15T16:16:53.766Z,39.32
2018-09-15T16:19:22.707Z,39.71
2018-09-15T16:21:52.117Z,42.17
2018-09-15T16:24:21.088Z,41.78
2018-09-15T16:26:50.051Z,40.71
2018-09-15T16:29:19.072Z,42.91
2018-09-15T16:31:47.994Z,44.79
2018-09-15T16:34:17.108Z,42.84
2018-09-15T16:36:46.066Z,44.47
2018-09-15T16:39:15.092Z,44.19
2018-09-15T16:41:44.035Z,46.50
2018-09-15T16:44:13.016Z,45.65
2018-09-15T16:46:42.013Z,46.46
2018-09-15T16:49:11.000Z,46.36
2018-09-15T16:51:39.901Z,45.96
2018-09-15T16:54:08.878Z,46.76
2018-09-15T16:56:38.221Z,46.67
2018-09-15T16:59:07.571Z,48.15
2018-09-15T17:01:36.530Z,50.16
2018-09-15T17:04:05.503Z,52.25
2018-09-15T17:06:34.460Z,51.72
2018-09-15T17:09:03.874Z,51.69
2018-09-15T17:11:32.801Z,52.77
2018-09-15T17:14:01.811Z,53.67
2018-09-15T17:16:30.765Z,54.21
2018-09-15T17:18:59.814Z,54.45
2018-09-15T17:21:28.819Z,56.01
2018-09-15T17:23:57.798Z,55.77
2018-09-15T17:26:26.772Z,56.93
2018-09-15T17:28:55.758Z,57.31
2018-09-15T17:31:24.852Z,57.83
2018-09-15T17:33:53.825Z,58.39
2018-09-15T17:36:22.789Z,59.25
2018-09-15T17:38:51.836Z,58.06
2018-09-15T17:41:32.704Z,59.45
2018-09-15T17:44:03.036Z,60.34
2018-09-15T17:46:32.072Z,60.46
2018-09-15T17:49:01.084Z,61.38
2018-09-15T17:51:30.090Z,60.94
2018-09-15T17:53:59.076Z,60.81
2018-09-15T17:56:28.218Z,62.64
2018-09-15T17:58:57.446Z,62.40
2018-09-15T18:01:26.408Z,62.15
2018-09-15T18:03:55.368Z,64.29
2018-09-15T18:06:24.389Z,64.05
2018-09-15T18:08:55.133Z,62.86
2018-09-15T18:11:24.320Z,64.37
2018-09-15T18:13:53.365Z,64.42
2018-09-15T18:16:22.313Z,64.99
2018-09-15T18:18:51.408Z,65.91
2018-09-15T18:21:20.584Z,64.82
2018-09-15T18:23:49.598Z,65.73
2018-09-15T18:26:18.553Z,65.32
2018-09-15T18:28:47.605Z,65.48
2018-09-15T18:31:16.577Z,66.62
2018-09-15T18:33:45.661Z,67.50
2018-09-15T18:36:14.583Z,68.12
2018-09-15T18:38:43.513Z,67.48
2018-09-15T18:41:12.473Z,69.22
2018-09-15T18:43:41.489Z,68.44
2018-09-15T18:46:10.474Z,68.57
2018-09-15T18:48:39.447Z,69.44
2018-09-15T18:51:08.420Z,69.22
2018-09-15T18:53:37.876Z,67.09
2018-09-15T18:56:07.313Z,68.30
2018-09-15T18:58:36.273Z,67.77
2018-09-15T19:01:05.253Z,67.51
2018-09-15T19:03:34.254Z,68.34
2018-09-15T19:06:03.284Z,69.46
2018-09-15T19:08:32.339Z,70.09
2018-09-15T19:11:01.309Z,70.59
2018-09-15T19:13:30.308Z,71.35
2018-09-15T19:15:59.289Z,71.39
2018-09-15T19:18:28.241Z,71.90
2018-09-15T19:20:57.585Z,71.64
2018-09-15T19:23:26.708Z,71.56
2018-09-15T19:25:56.187Z,71.75
2018-09-15T19:28:25.178Z,71.96
2018-09-15T19:30:54.128Z,71.72
2018-09-15T19:33:23.148Z,71.90
2018-09-15T19:35:52.126Z,70.33
2018-09-15T19:38:21.238Z,70.49
2018-09-15T19:40:50.196Z,71.38
2018-09-15T19:43:19.469Z,71.67
2018-09-15T19:45:49.260Z,72.16
2018-09-15T19:48:18.376Z,71.17
2018-09-15T19:50:47.345Z,70.42
2018-09-15T19:53:16.503Z,73.26
2018-09-15T19:55:45.485Z,71.26
2018-09-15T19:58:14.783Z,70.31
2018-09-15T20:00:43.777Z,70.27
2018-09-15T20:03:12.756Z,71.92
2018-09-15T20:05:41.780Z,71.84
2018-09-15T20:08:10.782Z,72.61
2018-09-15T20:10:39.802Z,73.48
2018-09-15T20:13:08.874Z,74.42
2018-09-15T20:15:36.757Z,73.60
2018-09-15T20:18:04.737Z,73.90
2018-09-15T20:20:32.795Z,73.46
2018-09-15T20:23:01.749Z,73.84
2018-09-15T20:25:30.718Z,73.59
2018-09-15T20:27:59.689Z,74.35
2018-09-15T20:30:28.914Z,75.27
2018-09-15T20:32:57.952Z,75.31
2018-09-15T20:35:27.074Z,75.81
2018-09-15T20:37:56.251Z,75.68
2018-09-15T20:40:25.403Z,75.31
2018-09-15T20:42:54.687Z,75.36
2018-09-15T20:45:23.954Z,75.71
2018-09-15T20:47:53.095Z,75.79
2018-09-15T20:50:22.197Z,76.80
2018-09-15T20:52:51.391Z,76.23
2018-09-15T20:55:20.397Z,77.35
2018-09-15T20:57:49.431Z,76.47
2018-09-15T21:00:18.465Z,76.79
2018-09-15T21:02:47.485Z,76.58
2018-09-15T21:05:16.516Z,77.13
2018-09-15T21:07:45.559Z,77.90
2018-09-15T21:10:14.618Z,77.16
2018-09-15T21:12:43.729Z,77.01
2018-09-15T21:15:12.701Z,77.22
2018-09-15T21:17:41.794Z,76.81
2018-09-15T21:20:10.866Z,76.65
2018-09-15T21:22:39.896Z,77.12
2018-09-15T21:25:09.003Z,78.01
2018-09-15T21:27:38.018Z,78.11
2018-09-15T21:30:07.357Z,78.55
2018-09-15T21:32:36.348Z,78.22
2018-09-15T21:35:05.368Z,80.13
2018-09-15T21:37:34.402Z,79.82
2018-09-15T21:40:04.178Z,78.74
2018-09-15T21:42:33.146Z,79.45
2018-09-15T21:45:02.164Z,79.87
2018-09-15T21:47:31.195Z,80.26
2018-09-15T21:50:00.759Z,79.84
2018-09-15T21:52:29.935Z,78.76
2018-09-15T21:54:58.922Z,79.78
2018-09-15T21:57:27.876Z,80.70
2018-09-15T21:59:56.994Z,81.81
2018-09-15T22:02:25.940Z,82.09
2018-09-15T22:04:54.941Z,81.72
2018-09-15T22:07:23.877Z,81.22
2018-09-15T22:09:52.831Z,81.00
2018-09-15T22:12:21.819Z,80.71
2018-09-15T22:14:50.782Z,80.68
2018-09-15T22:17:19.770Z,81.30
2018-09-15T22:19:49.161Z,80.51
2018-09-15T22:22:18.506Z,80.41
2018-09-15T22:24:47.492Z,81.96
2018-09-15T22:27:16.566Z,80.67
2018-09-15T22:29:45.616Z,81.50
2018-09-15T22:32:14.653Z,81.55
2018-09-15T22:34:43.674Z,81.65
2018-09-15T22:37:12.638Z,81.79
2018-09-15T22:39:41.577Z,82.01
2018-09-15T22:42:10.532Z,80.93
2018-09-15T22:44:39.539Z,80.88
2018-09-15T22:47:08.525Z,82.42
2018-09-15T22:49:37.506Z,82.04
2018-09-15T22:52:06.541Z,81.64
2018-09-15T22:54:35.590Z,82.58
2018-09-15T22:57:04.637Z,83.02
2018-09-15T22:59:33.615Z,82.28
2018-09-15T23:02:02.561Z,82.60
2018-09-15T23:04:31.643Z,82.85
2018-09-15T23:07:00.662Z,82.67
2018-09-15T23:09:30.034Z,83.09
2018-09-15T23:11:59.010Z,83.03
2018-09-15T23:14:28.092Z,82.16
2018-09-15T23:16:57.039Z,82.89
2018-09-15T23:19:26.028Z,82.09
2018-09-15T23:21:54.959Z,82.77
2018-09-15T23:24:23.967Z,82.75
2018-09-15T23:26:53.010Z,82.51
2018-09-15T23:29:22.187Z,83.79
2018-09-15T23:31:51.110Z,83.70
2018-09-15T23:34:20.168Z,82.55
2018-09-15T23:36:49.544Z,83.51
2018-09-15T23:39:18.593Z,83.83
2018-09-15T23:41:47.639Z,84.23
2018-09-15T23:44:17.109Z,82.50
2018-09-15T23:46:46.073Z,82.42
2018-09-15T23:49:15.149Z,83.03
2018-09-15T23:51:44.139Z,83.57
2018-09-15T23:54:13.672Z,83.06
2018-09-15T23:56:42.597Z,83.54
2018-09-15T23:59:11.597Z,83.71
